This is the latest recevied weather packets stored in our database for station/object KM4NDN. If no packets are shown the sender has not sent any weather packets the latest 10 day(s).
| Time | Temp. | Humidity | Pressure | Rain* | Wind** | Luminosity | Snow |
|---|---|---|---|---|---|---|---|
| 1777743913 | 7.22° C | 62% | 1016.3 hPa | 0 mm | - | 836 W/m² | - |
| 1777743609 | 7.22° C | 69% | 1016.6 hPa | 0 mm | - | 286 W/m² | - |
| 1777743307 | 7.22° C | 67% | 1016.3 hPa | 0 mm | - | 1061 W/m² | - |
| 1777743005 | 6.67° C | 69% | 1016.3 hPa | 0 mm | - | 973 W/m² | - |
| 1777742702 | 7.22° C | 67% | 1016.4 hPa | 0 mm | - | 730 W/m² | - |
| 1777742398 | 6.67° C | 71% | 1016.4 hPa | 0 mm | - | 886 W/m² | - |
| 1777742094 | 6.11° C | 72% | 1016.4 hPa | 0 mm | - | 979 W/m² | - |
| 1777741792 | 6.67° C | 70% | 1016.7 hPa | 0 mm | - | 589 W/m² | - |
| 1777741488 | 6.11° C | 73% | 1016.7 hPa | 0 mm | - | 1016 W/m² | - |
| 1777741184 | 5° C | 74% | 1016.8 hPa | 0 mm | - | 456 W/m² | - |
| 1777740882 | 5° C | 76% | 1016.9 hPa | 0 mm | - | 360 W/m² | - |
| 1777740578 | 5° C | 79% | 1016.8 hPa | 0 mm | - | 331 W/m² | - |
| 1777740274 | 4.44° C | 82% | 1016.8 hPa | 0 mm | - | 265 W/m² | - |
| 1777739971 | 4.44° C | 82% | 1017 hPa | 0 mm | - | 243 W/m² | - |
| 1777739667 | 4.44° C | 84% | 1017 hPa | 0 mm | - | 225 W/m² | - |
| 1777739365 | 3.89° C | 86% | 1016.8 hPa | 0 mm | - | 174 W/m² | - |
| 1777739062 | 3.89° C | 86% | 1016.8 hPa | 0 mm | - | 128 W/m² | - |
| 1777738759 | 3.89° C | 86% | 1016.7 hPa | 0 mm | - | 104 W/m² | - |
| 1777738455 | 3.89° C | 85% | 1016.9 hPa | 0 mm | - | 95 W/m² | - |
| 1777738153 | 3.89° C | 86% | 1016.9 hPa | 0 mm | - | 88 W/m² | - |
| 1777737851 | 3.89° C | 86% | 1016.9 hPa | 0 mm | - | 78 W/m² | - |
| 1777737550 | 3.89° C | 85% | 1016.9 hPa | 1.27 mm | - | 73 W/m² | - |
| 1777737248 | 3.89° C | 85% | 1016.9 hPa | 1.27 mm | - | 66 W/m² | - |
| 1777736942 | 3.89° C | 82% | 1017 hPa | 0 mm | - | 41 W/m² | - |
| 1777736025 | 5° C | 75% | 1016.7 hPa | 0 mm | - | 37 W/m² | - |
* Rain latest hour (hover to see other rain measurements)
** Current wind speed in m/s (hover to see current wind gust speed)